Time;durP1;ratioP1;P1;durP2;ratioP2;P2;SDS_P1;SDS_P2;PMS_P1;PMS_P2;Temp;Humidity;BMP_temperature;BMP_pressure;BME280_temperature;BME280_humidity;BME280_pressure;Samples;Min_cycle;Max_cycle;Signal;HPM_P1;HPM_P2
2024/01/25 00:00:56;;;;;;;14.68;2.90;;;7.50;99.90;;;;;;5074823;28;20084;-51
2024/01/25 00:03:22;;;;;;;14.60;2.00;;;7.40;99.90;;;;;;5074668;28;20387;-54
2024/01/25 00:05:48;;;;;;;12.53;2.97;;;7.40;99.90;;;;;;5074522;28;20467;-54
2024/01/25 00:08:14;;;;;;;12.68;2.25;;;7.40;99.90;;;;;;5074698;28;20480;-54
2024/01/25 00:10:39;;;;;;;18.98;3.22;;;7.50;99.90;;;;;;5074776;28;20080;-54
2024/01/25 00:13:05;;;;;;;16.77;2.37;;;7.50;99.90;;;;;;5074917;28;20088;-51
2024/01/25 00:15:31;;;;;;;12.20;2.13;;;7.40;99.90;;;;;;5074699;28;20041;-53
2024/01/25 00:17:56;;;;;;;15.63;2.40;;;7.40;99.90;;;;;;5074547;28;20127;-52
2024/01/25 00:20:22;;;;;;;13.83;2.17;;;7.40;99.90;;;;;;5074438;28;20048;-54
2024/01/25 00:22:48;;;;;;;20.50;2.17;;;7.40;99.90;;;;;;5074502;28;20502;-54
2024/01/25 00:25:14;;;;;;;18.20;3.33;;;7.30;99.90;;;;;;5073629;28;20044;-54
2024/01/25 00:27:39;;;;;;;15.43;2.63;;;7.30;99.90;;;;;;5073090;28;20044;-53
2024/01/25 00:30:06;;;;;;;22.00;3.03;;;7.20;99.90;;;;;;5074441;28;20153;-54
2024/01/25 00:32:31;;;;;;;16.13;3.25;;;7.20;99.90;;;;;;5074097;28;20044;-54
2024/01/25 00:34:57;;;;;;;17.77;3.30;;;7.10;99.90;;;;;;5074138;28;20055;-52
2024/01/25 00:37:23;;;;;;;13.37;2.17;;;7.20;99.90;;;;;;5074223;28;20040;-54
2024/01/25 00:39:49;;;;;;;14.37;2.27;;;7.10;99.90;;;;;;5074203;28;20045;-54
2024/01/25 00:42:16;;;;;;;12.07;2.08;;;7.10;99.90;;;;;;5074244;28;20141;-52
2024/01/25 00:44:42;;;;;;;;;;;7.00;99.90;;;;;;5074560;28;20086;-53
2024/01/25 00:47:08;;;;;;;16.67;2.78;;;7.00;99.90;;;;;;5074123;28;20307;-54
2024/01/25 00:49:35;;;;;;;21.45;3.47;;;7.00;99.90;;;;;;5073812;28;20048;-53
2024/01/25 00:52:03;;;;;;;13.85;1.90;;;7.00;99.90;;;;;;5073933;28;20045;-54
2024/01/25 00:54:29;;;;;;;13.55;3.05;;;6.90;99.90;;;;;;5074371;28;20106;-54
2024/01/25 00:56:55;;;;;;;14.75;2.75;;;6.90;99.90;;;;;;5073956;28;20063;-54
2024/01/25 00:59:21;;;;;;;15.45;2.10;;;6.90;99.90;;;;;;5073842;28;20484;-53
2024/01/25 01:01:51;;;;;;;20.23;3.28;;;6.80;99.90;;;;;;5073951;28;20055;-53
2024/01/25 01:04:16;;;;;;;20.10;2.72;;;6.80;99.90;;;;;;5073436;28;20048;-53
2024/01/25 01:06:42;;;;;;;15.43;2.57;;;6.80;99.90;;;;;;5072652;28;20071;-54
2024/01/25 01:09:08;;;;;;;13.20;2.15;;;6.80;99.90;;;;;;5073450;28;20131;-54
2024/01/25 01:11:36;;;;;;;18.92;2.35;;;6.70;99.90;;;;;;5073627;28;20044;-54
2024/01/25 01:14:02;;;;;;;18.63;3.25;;;6.70;99.90;;;;;;5072882;28;20074;-53
2024/01/25 01:16:30;;;;;;;17.43;2.97;;;6.70;99.90;;;;;;5073658;28;20071;-53
2024/01/25 01:18:56;;;;;;;14.95;2.85;;;6.70;99.90;;;;;;5073504;28;20152;-53
2024/01/25 01:21:22;;;;;;;12.37;2.30;;;6.60;99.90;;;;;;5073416;28;20088;-54
2024/01/25 01:23:47;;;;;;;11.90;2.57;;;6.60;99.90;;;;;;5073449;28;20131;-53
2024/01/25 01:26:13;;;;;;;13.27;2.57;;;6.70;99.90;;;;;;5072648;28;20137;-53
2024/01/25 01:28:39;;;;;;;18.97;2.87;;;6.60;99.90;;;;;;5073318;28;20052;-53
2024/01/25 01:31:04;;;;;;;14.80;2.00;;;6.60;99.90;;;;;;5073601;28;20118;-54
2024/01/25 01:33:30;;;;;;;18.30;2.27;;;6.60;99.90;;;;;;5073325;28;20089;-53
2024/01/25 01:35:56;;;;;;;12.23;2.20;;;6.60;99.90;;;;;;5073589;28;20045;-54
2024/01/25 01:38:21;;;;;;;22.00;3.40;;;6.60;99.90;;;;;;5073438;28;20131;-52
2024/01/25 01:40:47;;;;;;;20.23;3.80;;;6.60;99.90;;;;;;5073449;28;20048;-54
2024/01/25 01:43:19;;;;;;;20.33;2.53;;;6.60;99.90;;;;;;5073379;28;20040;-53
2024/01/25 01:45:45;;;;;;;9.35;2.20;;;6.60;99.90;;;;;;5072134;28;20063;-53
2024/01/25 01:48:11;;;;;;;14.70;2.03;;;6.60;99.90;;;;;;5073438;28;20048;-54
2024/01/25 01:50:38;;;;;;;17.17;3.33;;;6.60;99.90;;;;;;5073427;28;20110;-50
2024/01/25 01:53:04;;;;;;;18.65;2.47;;;6.60;99.90;;;;;;5073286;28;20128;-53
2024/01/25 01:55:31;;;;;;;14.38;2.45;;;6.60;99.90;;;;;;5073390;28;20119;-53
2024/01/25 01:57:57;;;;;;;17.95;2.80;;;6.50;99.90;;;;;;5073383;28;20127;-52
2024/01/25 02:00:25;;;;;;;16.88;2.47;;;6.50;99.90;;;;;;5072220;28;20127;-52
2024/01/25 02:02:51;;;;;;;19.75;2.40;;;6.50;99.90;;;;;;5073009;28;20089;-54
2024/01/25 02:05:17;;;;;;;13.93;2.08;;;6.50;99.90;;;;;;5073273;28;20049;-53
2024/01/25 02:07:43;;;;;;;18.87;3.37;;;6.50;99.90;;;;;;5073289;28;20114;-54
2024/01/25 02:10:09;;;;;;;14.40;2.92;;;6.50;99.90;;;;;;5073181;28;20074;-53
2024/01/25 02:12:36;;;;;;;19.77;3.40;;;6.50;99.90;;;;;;5073277;28;20135;-52
2024/01/25 02:15:02;;;;;;;9.23;2.15;;;6.40;99.90;;;;;;5072913;28;20062;-54
2024/01/25 02:17:28;;;;;;;13.87;2.70;;;6.40;99.90;;;;;;5073414;28;20040;-52
2024/01/25 02:19:53;;;;;;;14.20;2.93;;;6.40;99.90;;;;;;5073154;28;20044;-54
2024/01/25 02:22:19;;;;;;;17.70;2.27;;;6.40;99.90;;;;;;5073069;28;20047;-54
2024/01/25 02:24:45;;;;;;;12.07;2.08;;;6.40;99.90;;;;;;5072973;28;20059;-53
2024/01/25 02:27:11;;;;;;;14.27;2.40;;;6.30;99.90;;;;;;5076591;28;20049;-52
2024/01/25 02:29:37;;;;;;;20.57;2.13;;;6.40;99.90;;;;;;5076671;28;20095;-53
2024/01/25 02:32:03;;;;;;;11.70;2.03;;;6.40;99.90;;;;;;5076642;28;20170;-51
2024/01/25 02:34:28;;;;;;;15.68;2.83;;;6.40;99.90;;;;;;5076627;28;20045;-52
2024/01/25 02:36:54;;;;;;;12.87;2.43;;;6.40;99.90;;;;;;5076600;28;20118;-53
2024/01/25 02:39:20;;;;;;;13.57;2.27;;;6.30;99.90;;;;;;5076716;28;20109;-52
2024/01/25 02:41:45;;;;;;;13.87;2.57;;;6.30;99.90;;;;;;5076334;28;20040;-53
2024/01/25 02:44:11;;;;;;;14.87;2.17;;;6.30;99.90;;;;;;5076226;28;20040;-53
2024/01/25 02:46:37;;;;;;;20.30;3.20;;;6.30;99.90;;;;;;5076127;28;20045;-52
2024/01/25 02:49:04;;;;;;;20.10;3.20;;;6.30;99.90;;;;;;5076589;28;20123;-51
2024/01/25 02:51:29;;;;;;;14.10;2.42;;;6.20;99.90;;;;;;5076180;28;20055;-53
2024/01/25 02:53:55;;;;;;;22.47;3.27;;;6.30;99.90;;;;;;5076388;28;20048;-51
2024/01/25 02:56:21;;;;;;;25.17;3.23;;;6.20;99.90;;;;;;5075990;28;20044;-53
2024/01/25 02:58:47;;;;;;;14.53;2.37;;;6.20;99.90;;;;;;5076164;28;20048;-50
2024/01/25 03:01:12;;;;;;;18.47;2.77;;;6.20;99.90;;;;;;5076190;28;20180;-51
2024/01/25 03:03:38;;;;;;;15.03;2.00;;;6.30;99.90;;;;;;5076107;28;20040;-53
2024/01/25 03:06:06;;;;;;;13.38;2.63;;;6.20;99.90;;;;;;5075845;28;20127;-51
2024/01/25 03:08:31;;;;;;;15.60;2.75;;;6.20;99.90;;;;;;5075984;28;20052;-54
2024/01/25 03:10:57;;;;;;;17.90;2.80;;;6.20;99.90;;;;;;5075003;28;20040;-52
2024/01/25 03:13:23;;;;;;;11.27;2.17;;;6.20;99.90;;;;;;5075747;28;20071;-50
2024/01/25 03:15:49;;;;;;;17.63;2.83;;;6.20;99.90;;;;;;5075601;28;20080;-54
2024/01/25 03:18:14;;;;;;;14.53;2.80;;;6.20;99.90;;;;;;5075880;28;20074;-53
2024/01/25 03:20:40;;;;;;;14.83;2.53;;;6.20;99.90;;;;;;5075838;28;20098;-52
2024/01/25 03:23:06;;;;;;;19.00;2.73;;;6.20;99.90;;;;;;5074801;28;20052;-48
2024/01/25 03:25:32;;;;;;;15.40;2.20;;;6.20;99.90;;;;;;5074526;28;20036;-53
2024/01/25 03:27:57;;;;;;;10.70;2.23;;;6.20;99.90;;;;;;5075382;28;20106;-51
2024/01/25 03:30:23;;;;;;;14.57;2.47;;;6.10;99.90;;;;;;5075571;28;20480;-51
2024/01/25 03:32:48;;;;;;;15.87;3.20;;;6.10;99.90;;;;;;5075733;28;20094;-51
2024/01/25 03:35:14;;;;;;;17.10;2.70;;;6.10;99.90;;;;;;5075486;28;20040;-54
2024/01/25 03:37:40;;;;;;;15.83;2.30;;;6.10;99.90;;;;;;5074919;28;20089;-52
2024/01/25 03:40:06;;;;;;;16.87;2.60;;;6.10;99.90;;;;;;5074313;28;20131;-51
2024/01/25 03:42:32;;;;;;;19.10;3.38;;;6.10;99.90;;;;;;5075381;28;20036;-51
2024/01/25 03:44:57;;;;;;;11.73;2.13;;;6.10;99.90;;;;;;5075012;28;20515;-50
2024/01/25 03:47:23;;;;;;;17.70;3.30;;;6.10;99.90;;;;;;5075331;28;20365;-50
2024/01/25 03:49:49;;;;;;;15.70;2.20;;;6.10;99.90;;;;;;5074288;28;20430;-51
2024/01/25 03:52:14;;;;;;;24.90;3.17;;;6.10;99.90;;;;;;5075191;28;20555;-51
2024/01/25 03:54:40;;;;;;;16.83;2.90;;;6.00;99.90;;;;;;5073974;28;20048;-51
2024/01/25 03:57:06;;;;;;;24.80;2.70;;;6.00;99.90;;;;;;5075010;28;20040;-55
2024/01/25 03:59:32;;;;;;;16.17;2.57;;;5.90;99.90;;;;;;5074955;28;20051;-53
2024/01/25 04:01:57;;;;;;;15.07;2.43;;;5.90;99.90;;;;;;5075612;28;20048;-53
2024/01/25 04:04:23;;;;;;;14.87;2.27;;;5.90;99.90;;;;;;5074826;28;20131;-52
2024/01/25 04:06:49;;;;;;;16.40;2.90;;;5.80;99.90;;;;;;5074723;28;20044;-50
2024/01/25 04:09:17;;;;;;;17.30;2.83;;;5.90;99.90;;;;;;5073851;28;20040;-53
2024/01/25 04:11:43;;;;;;;14.88;1.90;;;5.90;99.90;;;;;;5074843;28;20376;-50
2024/01/25 04:14:09;;;;;;;21.03;3.10;;;5.90;99.90;;;;;;5074653;28;20045;-51
2024/01/25 04:16:34;;;;;;;17.30;2.77;;;5.90;99.90;;;;;;5075132;28;20080;-52
2024/01/25 04:19:00;;;;;;;16.10;2.90;;;5.80;99.90;;;;;;5074695;28;20127;-49
2024/01/25 04:21:27;;;;;;;12.40;2.20;;;5.80;99.90;;;;;;5074521;28;20052;-52
2024/01/25 04:23:52;;;;;;;11.23;2.38;;;5.80;99.90;;;;;;5074445;28;20282;-51
2024/01/25 04:26:18;;;;;;;15.57;2.83;;;5.80;99.90;;;;;;5074311;28;20037;-52
2024/01/25 04:28:44;;;;;;;18.30;3.33;;;5.80;99.90;;;;;;5074052;28;20055;-52
2024/01/25 04:31:09;;;;;;;16.43;2.93;;;5.80;99.90;;;;;;5074596;28;20045;-51
2024/01/25 04:33:35;;;;;;;18.30;3.17;;;5.80;99.90;;;;;;5073190;28;20121;-52
2024/01/25 04:36:01;;;;;;;16.43;2.70;;;5.80;99.90;;;;;;5074170;28;20044;-52
2024/01/25 04:38:26;;;;;;;16.30;2.50;;;5.80;99.90;;;;;;5074444;28;20052;-52
2024/01/25 04:40:52;;;;;;;17.77;2.37;;;5.80;99.90;;;;;;5073021;28;20078;-50
2024/01/25 04:43:18;;;;;;;16.57;2.63;;;5.80;99.90;;;;;;5074125;28;20052;-50
2024/01/25 04:45:43;;;;;;;15.93;3.10;;;5.70;99.90;;;;;;5073815;28;20056;-50
2024/01/25 04:48:09;;;;;;;16.57;2.00;;;5.70;99.90;;;;;;5072130;28;20049;-49
2024/01/25 04:50:35;;;;;;;12.20;3.00;;;5.70;99.90;;;;;;5074022;28;20062;-49
2024/01/25 04:53:04;;;;;;;14.00;2.23;;;5.70;99.90;;;;;;5074047;28;20044;-49
2024/01/25 04:55:29;;;;;;;16.88;2.45;;;5.60;99.90;;;;;;5073815;28;20083;-52
2024/01/25 04:57:55;;;;;;;12.27;2.97;;;5.60;99.90;;;;;;5073691;28;20048;-50
2024/01/25 05:00:22;;;;;;;15.33;2.57;;;5.60;99.90;;;;;;5072873;28;20044;-50
2024/01/25 05:02:48;;;;;;;21.77;3.08;;;5.60;99.90;;;;;;5074135;28;20045;-52
2024/01/25 05:05:14;;;;;;;14.43;2.00;;;5.60;99.90;;;;;;5073912;28;20044;-49
2024/01/25 05:07:41;;;;;;;20.00;2.75;;;5.60;99.90;;;;;;5073861;28;20044;-50
2024/01/25 05:10:07;;;;;;;19.70;2.33;;;5.60;99.90;;;;;;5073864;28;20055;-49
2024/01/25 05:12:33;;;;;;;14.68;2.30;;;5.60;99.90;;;;;;5072637;28;20484;-49
2024/01/25 05:14:59;;;;;;;13.80;2.60;;;5.60;99.90;;;;;;5073770;28;20124;-49
2024/01/25 05:17:25;;;;;;;14.87;2.70;;;5.60;99.90;;;;;;5072536;28;20186;-49
2024/01/25 05:19:50;;;;;;;14.07;2.57;;;5.60;99.90;;;;;;5073707;28;20044;-51
2024/01/25 05:22:16;;;;;;;19.00;2.13;;;5.60;99.90;;;;;;5073612;28;20449;-51
2024/01/25 05:24:42;;;;;;;16.57;2.50;;;5.60;99.90;;;;;;5073486;28;20041;-49
2024/01/25 05:27:08;;;;;;;12.70;2.03;;;5.50;99.90;;;;;;5073328;28;20306;-49
2024/01/25 05:29:33;;;;;;;13.60;2.43;;;5.50;99.90;;;;;;5073349;28;20399;-51
2024/01/25 05:31:59;;;;;;;16.80;2.10;;;5.50;99.90;;;;;;5073656;28;20084;-49
2024/01/25 05:34:25;;;;;;;12.13;2.17;;;5.50;99.90;;;;;;5072608;28;20452;-49
2024/01/25 05:36:51;;;;;;;22.57;3.37;;;5.50;99.90;;;;;;5073400;28;20048;-49
2024/01/25 05:39:17;;;;;;;17.30;2.17;;;5.40;99.90;;;;;;5072556;28;20040;-48
2024/01/25 05:41:45;;;;;;;15.60;2.23;;;5.50;99.90;;;;;;5073263;28;20080;-49
2024/01/25 05:44:12;;;;;;;19.52;2.92;;;5.40;99.90;;;;;;5073451;28;20049;-50
2024/01/25 05:46:38;;;;;;;16.15;2.45;;;5.50;99.90;;;;;;5073495;28;20138;-48
2024/01/25 05:49:03;;;;;;;10.83;2.00;;;5.40;99.90;;;;;;5073188;28;20503;-50
2024/01/25 05:51:29;;;;;;;13.13;2.33;;;5.40;99.90;;;;;;5073187;28;20087;-50
2024/01/25 05:53:55;;;;;;;23.93;3.47;;;5.50;99.90;;;;;;5073301;28;20040;-49
2024/01/25 05:56:20;;;;;;;16.03;2.57;;;5.40;99.90;;;;;;5073193;28;20468;-49
2024/01/25 05:58:46;;;;;;;15.73;2.57;;;5.40;99.90;;;;;;5073085;28;20048;-50
2024/01/25 06:01:11;;;;;;;13.73;2.57;;;5.40;99.90;;;;;;5076876;28;20045;-49
2024/01/25 06:03:37;;;;;;;14.23;2.83;;;5.40;99.90;;;;;;5077171;28;20049;-49
2024/01/25 06:06:03;;;;;;;15.77;2.87;;;5.40;99.90;;;;;;5076177;28;20044;-49
2024/01/25 06:08:28;;;;;;;14.20;2.20;;;5.40;99.90;;;;;;5076177;28;20051;-49
2024/01/25 06:10:54;;;;;;;19.77;2.93;;;5.30;99.90;;;;;;5076741;28;20048;-50
2024/01/25 06:13:20;;;;;;;12.30;2.20;;;5.40;99.90;;;;;;5076977;28;20052;-49
2024/01/25 06:15:45;;;;;;;13.97;2.43;;;5.30;99.90;;;;;;5076911;28;20048;-49
2024/01/25 06:18:11;;;;;;;17.37;2.93;;;5.30;99.90;;;;;;5076990;28;20059;-50
2024/01/25 06:20:37;;;;;;;15.73;2.53;;;5.30;99.90;;;;;;5076919;28;20044;-49
2024/01/25 06:23:02;;;;;;;19.07;2.50;;;5.30;99.90;;;;;;5075993;28;20051;-49
2024/01/25 06:25:30;;;;;;;14.53;2.60;;;5.30;99.90;;;;;;5076753;28;20135;-48
2024/01/25 06:27:57;;;;;;;12.35;3.08;;;5.30;99.90;;;;;;5076358;28;20543;-49
2024/01/25 06:30:23;;;;;;;10.65;2.58;;;5.30;99.90;;;;;;5075113;28;20056;-49
2024/01/25 06:32:49;;;;;;;14.60;2.28;;;5.30;99.90;;;;;;5076614;28;20045;-51
2024/01/25 06:35:14;;;;;;;20.30;2.57;;;5.30;99.90;;;;;;5076617;28;20048;-49
2024/01/25 06:37:40;;;;;;;18.17;2.90;;;5.30;99.90;;;;;;5076711;28;20048;-49
2024/01/25 06:40:07;;;;;;;13.47;2.63;;;5.20;99.90;;;;;;5076386;28;20114;-51
2024/01/25 06:42:32;;;;;;;17.73;3.75;;;5.20;99.90;;;;;;5076266;28;20387;-49
2024/01/25 06:44:58;;;;;;;19.87;2.50;;;5.30;99.90;;;;;;5075345;28;20045;-49
2024/01/25 06:47:23;;;;;;;18.87;1.80;;;5.20;99.90;;;;;;5075157;28;20395;-53
2024/01/25 06:49:51;;;;;;;16.50;2.63;;;5.20;99.90;;;;;;5076285;28;20052;-52
2024/01/25 06:52:17;;;;;;;16.35;3.40;;;5.20;99.90;;;;;;5076237;28;20055;-52
2024/01/25 06:54:43;;;;;;;20.23;3.03;;;5.30;99.90;;;;;;5076228;28;20094;-52
2024/01/25 06:57:09;;;;;;;19.03;3.20;;;5.30;99.90;;;;;;5076283;28;20075;-50
2024/01/25 06:59:34;;;;;;;17.63;2.90;;;5.30;99.90;;;;;;5076140;28;20083;-51
2024/01/25 07:02:02;;;;;;;12.67;2.50;;;5.20;99.90;;;;;;5076337;28;20044;-52
2024/01/25 07:04:28;;;;;;;18.10;3.20;;;5.20;99.90;;;;;;5076098;28;20044;-52
2024/01/25 07:06:54;;;;;;;11.05;2.40;;;5.20;99.90;;;;;;5075968;28;20037;-51
2024/01/25 07:09:20;;;;;;;17.55;2.85;;;5.20;99.90;;;;;;5075882;28;20044;-49
2024/01/25 07:11:46;;;;;;;16.80;3.97;;;5.20;99.90;;;;;;5075243;28;20040;-50
2024/01/25 07:14:12;;;;;;;13.77;2.43;;;5.20;99.90;;;;;;5075920;28;20044;-50
2024/01/25 07:16:38;;;;;;;15.63;2.27;;;5.20;99.90;;;;;;5075862;28;20043;-51
2024/01/25 07:19:04;;;;;;;20.13;3.27;;;5.20;99.90;;;;;;5074968;28;20091;-52
2024/01/25 07:21:32;;;;;;;20.77;2.90;;;5.20;99.90;;;;;;5074634;28;20479;-49
2024/01/25 07:24:02;;;;;;;17.52;2.38;;;5.20;99.90;;;;;;5075468;28;20049;-52
2024/01/25 07:26:30;;;;;;;13.95;2.40;;;5.20;99.90;;;;;;5075715;28;20099;-52
2024/01/25 07:28:58;;;;;;;20.30;3.58;;;5.20;99.90;;;;;;5076042;28;20060;-50
2024/01/25 07:31:27;;;;;;;17.65;2.67;;;5.10;99.90;;;;;;5074204;28;20400;-49
2024/01/25 07:33:53;;;;;;;14.85;3.03;;;5.20;99.90;;;;;;5075504;28;20091;-49
2024/01/25 07:36:19;;;;;;;10.05;2.33;;;5.20;99.90;;;;;;5075279;28;20051;-48
2024/01/25 07:38:46;;;;;;;12.35;2.70;;;5.20;99.90;;;;;;5075192;28;20473;-48
2024/01/25 07:41:13;;;;;;;14.48;2.50;;;5.20;99.90;;;;;;5075446;28;20507;-50
2024/01/25 07:43:39;;;;;;;15.30;3.15;;;5.20;99.90;;;;;;5075318;28;20082;-48
2024/01/25 07:46:05;;;;;;;15.80;2.87;;;5.20;99.90;;;;;;5075263;28;20041;-48
2024/01/25 07:48:30;;;;;;;17.43;3.40;;;5.10;99.90;;;;;;5075178;28;20275;-49
2024/01/25 07:50:56;;;;;;;17.60;2.50;;;5.10;99.90;;;;;;5075004;28;20123;-48
2024/01/25 07:53:22;;;;;;;13.10;2.47;;;5.10;99.90;;;;;;5075137;28;20055;-49
2024/01/25 07:55:48;;;;;;;20.10;2.53;;;5.10;99.90;;;;;;5075440;28;20044;-49
2024/01/25 07:58:15;;;;;;;18.43;2.57;;;5.10;99.90;;;;;;5074064;28;20048;-49
2024/01/25 08:00:42;;;;;;;18.25;3.08;;;5.20;99.90;;;;;;5074938;28;20040;-48
2024/01/25 08:03:08;;;;;;;17.35;2.92;;;5.20;99.90;;;;;;5074838;28;20079;-49
2024/01/25 08:05:33;;;;;;;18.48;3.88;;;5.20;99.90;;;;;;5074604;28;20044;-50
2024/01/25 08:07:59;;;;;;;16.63;3.73;;;5.20;99.90;;;;;;5075081;28;20070;-48
2024/01/25 08:10:25;;;;;;;14.70;2.77;;;5.20;99.90;;;;;;5074776;28;20052;-48
2024/01/25 08:12:51;;;;;;;21.53;3.10;;;5.20;99.90;;;;;;5074690;28;20431;-49
2024/01/25 08:15:17;;;;;;;15.97;2.77;;;5.20;99.90;;;;;;5073679;28;20110;-48
2024/01/25 08:17:42;;;;;;;16.87;3.13;;;5.20;99.90;;;;;;5074674;28;20045;-48
2024/01/25 08:20:10;;;;;;;12.37;2.73;;;5.30;99.90;;;;;;5074469;28;20052;-48
2024/01/25 08:22:36;;;;;;;27.92;4.13;;;5.30;99.90;;;;;;5074138;28;20045;-49
2024/01/25 08:25:04;;;;;;;21.90;2.87;;;5.30;99.90;;;;;;5074520;28;20522;-49
2024/01/25 08:27:30;;;;;;;18.65;2.97;;;5.40;99.90;;;;;;5074558;28;20053;-48
2024/01/25 08:29:55;;;;;;;18.87;2.43;;;5.40;99.90;;;;;;5074265;28;20060;-48
2024/01/25 08:32:21;;;;;;;13.87;2.40;;;5.40;99.90;;;;;;5074305;28;20044;-49
2024/01/25 08:34:46;;;;;;;15.07;2.63;;;5.40;99.90;;;;;;5074183;28;20058;-48
2024/01/25 08:37:12;;;;;;;15.83;3.40;;;5.40;99.90;;;;;;5074280;28;20565;-50
2024/01/25 08:39:38;;;;;;;20.20;4.00;;;5.40;99.90;;;;;;5074283;28;20071;-49
2024/01/25 08:42:06;;;;;;;15.87;3.53;;;5.40;99.90;;;;;;5074233;28;20048;-48
2024/01/25 08:44:32;;;;;;;19.50;2.80;;;5.40;99.90;;;;;;5074130;28;20048;-49
2024/01/25 08:46:58;;;;;;;18.45;3.17;;;5.50;99.90;;;;;;5072793;28;20381;-49
2024/01/25 08:49:23;;;;;;;17.07;3.00;;;5.50;99.90;;;;;;5073942;28;20056;-49
2024/01/25 08:51:50;;;;;;;16.93;2.70;;;5.50;99.90;;;;;;5074091;28;20045;-49
2024/01/25 08:54:15;;;;;;;14.23;2.60;;;5.50;99.90;;;;;;5074064;28;20132;-49
2024/01/25 08:56:41;;;;;;;18.00;2.93;;;5.50;99.90;;;;;;5074050;28;20123;-48
2024/01/25 08:59:07;;;;;;;19.80;3.00;;;5.50;99.90;;;;;;5074108;28;20507;-48
2024/01/25 09:01:33;;;;;;;11.83;2.90;;;5.50;99.90;;;;;;5073767;28;20131;-48
2024/01/25 09:04:02;;;;;;;21.17;4.17;;;5.60;99.90;;;;;;5073926;28;20048;-49
2024/01/25 09:06:29;;;;;;;17.52;2.97;;;5.60;99.90;;;;;;5072791;28;20492;-48
2024/01/25 09:08:55;;;;;;;24.30;3.05;;;5.60;99.90;;;;;;5073757;28;20122;-49
2024/01/25 09:11:21;;;;;;;17.17;2.58;;;5.60;99.90;;;;;;5073568;28;20067;-48
2024/01/25 09:13:47;;;;;;;15.80;2.50;;;5.60;99.90;;;;;;5074008;28;20468;-49
2024/01/25 09:16:13;;;;;;;21.60;3.50;;;5.60;99.90;;;;;;5089553;28;20052;-48
2024/01/25 09:18:39;;;;;;;12.75;3.13;;;5.60;99.90;;;;;;5073511;28;20063;-48
2024/01/25 09:21:05;;;;;;;18.77;3.37;;;5.60;99.90;;;;;;5073747;28;20487;-48
2024/01/25 09:23:30;;;;;;;17.93;3.10;;;5.70;99.90;;;;;;5073702;28;20393;-48
2024/01/25 09:25:56;;;;;;;14.80;2.67;;;5.70;99.90;;;;;;5073567;28;20079;-48
2024/01/25 09:28:22;;;;;;;11.77;1.97;;;5.70;99.90;;;;;;5073435;28;20048;-49
2024/01/25 09:30:48;;;;;;;13.90;2.93;;;5.80;99.90;;;;;;5073752;28;20060;-48
2024/01/25 09:33:14;;;;;;;15.57;3.30;;;5.80;99.90;;;;;;5073428;28;20102;-48
2024/01/25 09:35:40;;;;;;;17.23;3.25;;;5.80;99.90;;;;;;5077377;28;20506;-48
2024/01/25 09:38:07;;;;;;;18.60;2.97;;;5.80;99.90;;;;;;5080503;28;20126;-48
2024/01/25 09:40:33;;;;;;;19.88;2.50;;;6.00;99.90;;;;;;5080161;28;20071;-48
2024/01/25 09:42:59;;;;;;;14.57;2.97;;;5.90;99.90;;;;;;5080199;28;20527;-49
2024/01/25 09:45:25;;;;;;;8.00;2.10;;;6.00;99.90;;;;;;5080070;28;20080;-51
2024/01/25 09:47:51;;;;;;;21.88;2.97;;;6.00;99.90;;;;;;5080029;28;20431;-49
2024/01/25 09:50:17;;;;;;;18.90;3.10;;;6.00;99.90;;;;;;5080104;28;20045;-51
2024/01/25 09:52:54;;;;;;;17.53;4.13;;;6.10;99.90;;;;;;5078944;28;20083;-52
2024/01/25 09:55:24;;;;;;;14.60;3.28;;;6.10;99.90;;;;;;5080223;28;20407;-51
2024/01/25 09:57:55;;;;;;;15.77;3.25;;;6.10;99.90;;;;;;5079992;28;20479;-51
2024/01/25 10:00:21;;;;;;;16.70;3.00;;;6.20;99.90;;;;;;5079963;28;20048;-52
2024/01/25 10:02:50;;;;;;;18.30;2.92;;;6.20;99.90;;;;;;5079999;28;20539;-51
2024/01/25 10:05:17;;;;;;;19.63;3.53;;;6.20;99.90;;;;;;5079937;28;20496;-49
2024/01/25 10:07:44;;;;;;;19.38;2.92;;;6.20;99.90;;;;;;5079870;28;20499;-49
2024/01/25 10:10:11;;;;;;;21.63;3.00;;;6.30;99.90;;;;;;5079912;28;20044;-52
2024/01/25 10:12:38;;;;;;;21.27;4.70;;;6.30;99.90;;;;;;5079646;28;20048;-52
2024/01/25 10:15:05;;;;;;;17.80;2.95;;;6.30;99.90;;;;;;5079790;28;20051;-50
2024/01/25 10:17:31;;;;;;;12.20;2.78;;;6.40;99.90;;;;;;5079796;28;20036;-49
2024/01/25 10:19:57;;;;;;;14.05;3.10;;;6.40;99.90;;;;;;5079854;28;20052;-51
2024/01/25 10:22:23;;;;;;;20.20;2.80;;;6.50;99.90;;;;;;5079815;28;20131;-50
2024/01/25 10:24:55;;;;;;;11.43;2.47;;;6.50;99.90;;;;;;5079969;28;20123;-48
2024/01/25 10:27:22;;;;;;;18.63;2.80;;;6.60;99.90;;;;;;5079623;28;20048;-49
2024/01/25 10:29:50;;;;;;;16.83;2.90;;;6.70;99.90;;;;;;5080005;28;20091;-50
2024/01/25 10:32:17;;;;;;;16.67;3.35;;;6.70;99.90;;;;;;5079723;28;20052;-49
2024/01/25 10:34:45;;;;;;;23.95;3.17;;;6.80;99.90;;;;;;5079725;28;20041;-49
2024/01/25 10:37:14;;;;;;;14.52;2.38;;;6.90;99.90;;;;;;5079826;28;20419;-49
2024/01/25 10:39:41;;;;;;;18.75;2.90;;;6.90;99.90;;;;;;5079603;28;20076;-49
2024/01/25 10:42:06;;;;;;;;;;;6.90;99.90;;;;;;5079835;28;20091;-49
2024/01/25 10:44:32;;;;;;;16.88;3.92;;;6.90;99.90;;;;;;5079626;28;19972;-49
2024/01/25 10:46:58;;;;;;;12.07;2.27;;;6.90;99.90;;;;;;5077265;28;20182;-49
2024/01/25 10:49:26;;;;;;;15.88;2.33;;;6.90;99.90;;;;;;5076256;28;20559;-48
2024/01/25 10:51:53;;;;;;;25.60;3.85;;;6.80;99.90;;;;;;5075654;28;20123;-50
2024/01/25 10:54:19;;;;;;;16.52;2.65;;;6.80;99.90;;;;;;5076375;28;20056;-50
2024/01/25 10:56:47;;;;;;;16.85;2.92;;;6.80;99.90;;;;;;5076154;28;20040;-50
2024/01/25 10:59:13;;;;;;;13.10;3.85;;;6.80;99.90;;;;;;5076278;28;20258;-49
2024/01/25 11:01:47;;;;;;;13.38;2.95;;;6.80;99.90;;;;;;5076157;28;20076;-48
2024/01/25 11:04:16;;;;;;;17.35;3.28;;;6.90;99.90;;;;;;5076397;28;20137;-49
2024/01/25 11:06:42;;;;;;;13.00;2.67;;;6.90;99.90;;;;;;5075971;28;20070;-49
2024/01/25 11:09:11;;;;;;;16.58;3.28;;;6.90;99.90;;;;;;5074639;28;20055;-49
2024/01/25 11:11:39;;;;;;;16.83;3.47;;;7.00;99.90;;;;;;5076050;28;20048;-49
2024/01/25 11:14:12;;;;;;;15.13;3.00;;;7.10;99.90;;;;;;5075968;28;20122;-51
2024/01/25 11:16:42;;;;;;;18.52;2.38;;;7.10;99.90;;;;;;5075018;28;20502;-49
2024/01/25 11:19:07;;;;;;;21.17;2.75;;;7.20;99.90;;;;;;5075782;28;20056;-49
2024/01/25 11:21:50;;;;;;;22.00;3.47;;;7.30;99.90;;;;;;5075775;28;20048;-49
2024/01/25 11:24:17;;;;;;;15.20;2.92;;;7.30;99.90;;;;;;5075674;28;20048;-49
2024/01/25 11:26:43;;;;;;;;;;;7.40;99.90;;;;;;5074892;28;20119;-49
2024/01/25 11:29:09;;;;;;;17.02;3.97;;;7.40;99.90;;;;;;5075564;28;19920;-48
2024/01/25 11:31:35;;;;;;;13.63;2.93;;;7.40;99.90;;;;;;5075710;28;20480;-48
2024/01/25 11:34:01;;;;;;;18.43;3.23;;;7.40;99.90;;;;;;5075768;28;20044;-48
2024/01/25 11:36:27;;;;;;;14.50;3.08;;;7.40;99.90;;;;;;5075295;28;20037;-49
2024/01/25 11:38:53;;;;;;;21.23;3.00;;;7.40;99.90;;;;;;5075527;28;20045;-49
2024/01/25 11:41:19;;;;;;;19.07;2.93;;;7.40;99.90;;;;;;5075769;28;20097;-48
2024/01/25 11:43:48;;;;;;;18.73;3.03;;;7.40;99.90;;;;;;5075344;28;20091;-49
2024/01/25 11:46:14;;;;;;;13.95;2.95;;;7.40;99.90;;;;;;5075139;28;20040;-49
2024/01/25 11:48:41;;;;;;;13.60;2.63;;;7.50;99.90;;;;;;5075123;28;20447;-48
2024/01/25 11:51:08;;;;;;;13.30;2.58;;;7.50;99.90;;;;;;5074894;28;20526;-49
2024/01/25 11:53:34;;;;;;;15.75;3.47;;;7.50;99.90;;;;;;5075039;28;20557;-50
2024/01/25 11:56:00;;;;;;;14.90;3.10;;;7.50;99.90;;;;;;5075105;28;20053;-49
2024/01/25 11:58:26;;;;;;;20.33;2.75;;;7.50;99.90;;;;;;5074502;28;20279;-48
2024/01/25 12:00:52;;;;;;;18.10;3.30;;;7.50;99.90;;;;;;5074820;28;20511;-49
2024/01/25 12:03:18;;;;;;;16.23;2.87;;;7.50;99.90;;;;;;5074997;28;20074;-49
2024/01/25 12:05:44;;;;;;;19.08;3.15;;;7.50;99.90;;;;;;5073476;28;20060;-48
2024/01/25 12:08:13;;;;;;;14.20;2.63;;;7.50;99.90;;;;;;5075165;28;20041;-49
2024/01/25 12:10:39;;;;;;;18.45;3.75;;;7.50;99.90;;;;;;5074734;28;20500;-50
2024/01/25 12:13:08;;;;;;;12.33;2.40;;;7.50;99.90;;;;;;5074631;28;20052;-49
2024/01/25 12:15:35;;;;;;;13.45;3.10;;;7.50;99.90;;;;;;5074600;28;20044;-49
2024/01/25 12:18:01;;;;;;;18.75;3.45;;;7.50;99.90;;;;;;5074580;28;20076;-49
2024/01/25 12:20:28;;;;;;;16.63;3.55;;;7.50;99.90;;;;;;5074485;28;20408;-49
2024/01/25 12:22:53;;;;;;;14.27;3.28;;;7.60;99.90;;;;;;5074508;28;20045;-49
2024/01/25 12:25:19;;;;;;;15.30;2.93;;;7.50;99.90;;;;;;5074705;28;20051;-49
2024/01/25 12:27:46;;;;;;;17.03;3.10;;;7.60;99.90;;;;;;5073191;28;20040;-48
2024/01/25 12:30:12;;;;;;;16.30;2.63;;;7.60;99.90;;;;;;5074415;28;20060;-49
2024/01/25 12:32:38;;;;;;;14.90;3.38;;;7.60;99.90;;;;;;5074325;28;20109;-52
2024/01/25 12:35:05;;;;;;;13.40;2.77;;;7.60;99.90;;;;;;5074465;28;20441;-51
2024/01/25 12:37:30;;;;;;;17.13;2.53;;;7.60;99.90;;;;;;5074583;28;20045;-52
2024/01/25 12:39:56;;;;;;;14.07;2.90;;;7.60;99.90;;;;;;5074340;28;20044;-52
2024/01/25 12:42:22;;;;;;;18.07;3.77;;;7.60;99.90;;;;;;5074207;28;20040;-49